createdAt,value
2019-06-20T00:00:29.757Z,73.90
2019-06-20T00:03:00.311Z,74.10
2019-06-20T00:05:30.546Z,74.50
2019-06-20T00:08:01.379Z,74.30
2019-06-20T00:10:31.813Z,74.80
2019-06-20T00:13:02.066Z,74.00
2019-06-20T00:15:32.549Z,73.40
2019-06-20T00:18:02.626Z,73.60
2019-06-20T00:20:32.674Z,73.30
2019-06-20T00:23:03.219Z,72.90
2019-06-20T00:25:33.636Z,72.80
2019-06-20T00:28:03.903Z,71.60
2019-06-20T00:30:35.038Z,72.60
2019-06-20T00:33:05.481Z,73.00
2019-06-20T00:35:36.178Z,72.40
2019-06-20T00:38:06.296Z,73.20
2019-06-20T00:40:37.744Z,72.80
2019-06-20T00:43:16.801Z,73.70
2019-06-20T00:45:40.002Z,73.10
2019-06-20T00:48:10.229Z,72.70
2019-06-20T00:50:40.606Z,71.40
2019-06-20T00:53:10.745Z,67.70
2019-06-20T00:55:40.875Z,68.30
2019-06-20T00:58:11.284Z,99.90
2019-06-20T01:00:42.073Z,99.90
2019-06-20T01:03:16.940Z,99.90
2019-06-20T01:05:51.943Z,99.90
2019-06-20T01:08:27.400Z,99.90
2019-06-20T01:10:59.393Z,99.90
2019-06-20T01:13:33.609Z,99.90
2019-06-20T01:16:01.248Z,99.90
2019-06-20T01:18:32.173Z,99.90
2019-06-20T01:21:03.049Z,99.90
2019-06-20T01:23:33.753Z,99.90
2019-06-20T01:26:03.788Z,99.90
2019-06-20T01:28:34.391Z,99.90
2019-06-20T01:31:04.929Z,99.90
2019-06-20T01:33:34.979Z,99.90
2019-06-20T01:36:06.001Z,99.90
2019-06-20T01:38:36.023Z,99.90
2019-06-20T01:41:06.592Z,99.90
2019-06-20T01:43:49.977Z,99.90
2019-06-20T01:46:11.385Z,99.90
2019-06-20T01:48:41.896Z,99.90
2019-06-20T01:51:12.427Z,99.90
2019-06-20T01:53:42.865Z,99.90
2019-06-20T01:56:13.437Z,99.90
2019-06-20T01:58:43.504Z,99.90
2019-06-20T02:01:13.768Z,99.90
2019-06-20T02:03:43.859Z,99.90
2019-06-20T02:06:14.278Z,99.90
2019-06-20T02:08:44.827Z,99.90
2019-06-20T02:11:15.171Z,99.90
2019-06-20T02:13:46.273Z,99.90
2019-06-20T02:16:16.488Z,99.90
2019-06-20T02:18:46.584Z,99.90
2019-06-20T02:21:16.653Z,99.90
2019-06-20T02:23:47.278Z,99.90
2019-06-20T02:26:17.530Z,99.90
2019-06-20T02:28:48.016Z,99.90
2019-06-20T02:31:18.337Z,99.90
2019-06-20T02:33:48.471Z,99.90
2019-06-20T02:36:19.018Z,99.90
2019-06-20T02:38:49.183Z,99.90
2019-06-20T02:41:19.262Z,99.90
2019-06-20T02:43:49.424Z,99.90
2019-06-20T02:46:19.611Z,99.90
2019-06-20T02:48:50.096Z,99.90
2019-06-20T02:51:24.222Z,99.90
2019-06-20T02:53:55.137Z,99.90
2019-06-20T02:56:26.504Z,99.90
2019-06-20T02:58:56.643Z,99.90
2019-06-20T03:01:28.819Z,99.90
2019-06-20T03:03:58.928Z,99.90
2019-06-20T03:06:29.546Z,99.90
2019-06-20T03:08:59.600Z,99.90
2019-06-20T03:11:37.640Z,99.90
2019-06-20T03:14:09.186Z,99.90
2019-06-20T03:16:42.797Z,99.90
2019-06-20T03:19:17.052Z,99.90
2019-06-20T03:21:48.368Z,99.90
2019-06-20T03:24:24.696Z,99.90
2019-06-20T03:26:55.756Z,99.90
2019-06-20T03:29:26.865Z,99.90
2019-06-20T03:32:02.883Z,99.90
2019-06-20T03:34:35.855Z,99.90
2019-06-20T03:37:07.189Z,99.90
2019-06-20T03:39:39.972Z,99.90
2019-06-20T03:42:12.968Z,99.90
2019-06-20T03:45:01.156Z,99.90
2019-06-20T03:47:23.210Z,99.90
2019-06-20T03:49:55.637Z,99.90
2019-06-20T03:52:31.088Z,99.90
2019-06-20T03:55:07.059Z,99.90
2019-06-20T03:57:38.808Z,99.90
2019-06-20T04:00:19.076Z,99.90
2019-06-20T04:02:56.062Z,99.90
2019-06-20T04:05:30.205Z,99.90
2019-06-20T04:08:01.120Z,99.90
2019-06-20T04:10:36.565Z,99.90
2019-06-20T04:13:08.844Z,99.90
2019-06-20T04:15:45.506Z,99.90
2019-06-20T04:18:16.922Z,99.90
2019-06-20T04:20:48.784Z,99.90
2019-06-20T04:23:20.181Z,99.90
2019-06-20T04:25:53.739Z,99.90
2019-06-20T04:28:26.468Z,99.90
2019-06-20T04:30:58.250Z,99.90
2019-06-20T04:33:30.644Z,99.90
2019-06-20T04:36:08.775Z,99.90
2019-06-20T04:38:39.297Z,99.90
2019-06-20T04:41:25.798Z,99.90
2019-06-20T04:43:57.413Z,99.90
2019-06-20T04:46:39.119Z,99.90
2019-06-20T04:49:10.759Z,99.90
2019-06-20T04:51:46.438Z,99.90
2019-06-20T04:54:19.762Z,99.90
2019-06-20T04:56:54.355Z,99.90
2019-06-20T04:59:37.916Z,99.90
2019-06-20T05:02:34.176Z,99.90
2019-06-20T05:05:17.440Z,99.90
2019-06-20T05:07:50.972Z,99.90
2019-06-20T05:10:37.624Z,99.90
2019-06-20T05:13:04.756Z,99.90
2019-06-20T05:15:52.152Z,99.90
2019-06-20T05:18:15.057Z,99.90
2019-06-20T05:20:49.199Z,99.90
2019-06-20T05:23:20.393Z,99.90
2019-06-20T05:25:53.556Z,99.90
2019-06-20T05:28:25.289Z,99.90
2019-06-20T05:31:00.012Z,99.90
2019-06-20T05:33:37.193Z,99.90
2019-06-20T05:36:08.751Z,99.90
2019-06-20T05:38:39.012Z,99.90
2019-06-20T05:41:14.487Z,99.90
2019-06-20T05:43:44.700Z,99.90
2019-06-20T05:46:15.212Z,99.90
2019-06-20T05:48:53.463Z,99.90
2019-06-20T05:51:31.287Z,99.90
2019-06-20T05:54:05.223Z,99.90
2019-06-20T05:56:42.523Z,99.90
2019-06-20T05:59:15.508Z,99.90
2019-06-20T06:01:50.867Z,99.90
2019-06-20T06:04:28.254Z,99.90
2019-06-20T06:07:05.103Z,99.90
2019-06-20T06:09:38.064Z,99.90
2019-06-20T06:12:22.537Z,99.90
2019-06-20T06:15:04.020Z,99.90
2019-06-20T06:17:38.781Z,99.90
2019-06-20T06:20:12.068Z,99.90
2019-06-20T06:22:53.005Z,99.90
2019-06-20T06:25:31.095Z,99.90
2019-06-20T06:28:00.636Z,99.90
2019-06-20T06:30:33.016Z,99.90
2019-06-20T06:33:08.671Z,82.60
2019-06-20T06:35:40.126Z,78.70
2019-06-20T06:38:22.228Z,76.10
2019-06-20T06:40:52.039Z,76.30
2019-06-20T06:43:23.473Z,71.90
2019-06-20T06:46:02.718Z,77.10
2019-06-20T06:48:36.537Z,75.30
2019-06-20T06:51:07.531Z,76.40
2019-06-20T06:53:45.079Z,75.80
2019-06-20T06:56:16.599Z,77.70
2019-06-20T06:58:46.835Z,82.30
2019-06-20T07:01:17.130Z,84.20
2019-06-20T07:03:48.509Z,86.30
2019-06-20T07:06:23.464Z,86.30
2019-06-20T07:08:57.303Z,84.70
2019-06-20T07:11:33.576Z,89.00
2019-06-20T07:14:02.629Z,87.30
2019-06-20T07:16:34.217Z,87.60
2019-06-20T07:19:07.647Z,88.00
2019-06-20T07:21:41.627Z,85.50
2019-06-20T07:24:13.036Z,85.20
2019-06-20T07:26:43.965Z,87.80
2019-06-20T07:29:14.650Z,90.60
2019-06-20T07:31:58.403Z,97.20
2019-06-20T07:34:29.686Z,99.90
2019-06-20T07:37:08.935Z,99.90
2019-06-20T07:39:52.060Z,99.90
2019-06-20T07:42:28.014Z,99.90
2019-06-20T07:44:59.742Z,99.90
2019-06-20T07:47:30.234Z,97.30
2019-06-20T07:50:02.848Z,95.90
2019-06-20T07:52:33.214Z,91.00
2019-06-20T07:55:03.635Z,85.60
2019-06-20T07:57:34.896Z,83.10
2019-06-20T08:00:09.979Z,78.30
2019-06-20T08:02:43.398Z,74.50
2019-06-20T08:05:16.337Z,72.50
2019-06-20T08:07:48.856Z,68.60
2019-06-20T08:10:24.605Z,67.30
2019-06-20T08:12:59.276Z,64.70
2019-06-20T08:15:30.417Z,64.50
2019-06-20T08:18:05.078Z,62.80
2019-06-20T08:20:40.065Z,63.70
2019-06-20T08:23:11.320Z,62.60
2019-06-20T08:25:50.941Z,62.90
2019-06-20T08:28:26.062Z,64.50
2019-06-20T08:30:57.372Z,64.90
2019-06-20T08:33:32.795Z,62.50
2019-06-20T08:36:25.772Z,61.80
2019-06-20T08:38:57.549Z,63.20
2019-06-20T08:41:30.910Z,61.40
2019-06-20T08:44:04.190Z,61.20
2019-06-20T08:46:37.872Z,61.00
2019-06-20T08:49:14.614Z,64.10
2019-06-20T08:51:52.542Z,62.70
2019-06-20T08:54:38.393Z,64.20
2019-06-20T08:57:13.374Z,62.20
2019-06-20T08:59:56.019Z,61.30
2019-06-20T09:02:31.160Z,64.10
2019-06-20T09:05:08.291Z,63.70
2019-06-20T09:07:42.925Z,59.30
2019-06-20T09:10:17.986Z,61.50
2019-06-20T09:12:53.670Z,60.80
2019-06-20T09:15:34.938Z,62.00
2019-06-20T09:18:08.214Z,61.20
2019-06-20T09:20:42.701Z,63.30
2019-06-20T09:23:13.909Z,62.60
2019-06-20T09:26:02.010Z,64.00
2019-06-20T09:28:35.094Z,61.00
2019-06-20T09:31:07.435Z,60.40
2019-06-20T09:33:39.012Z,59.50
2019-06-20T09:36:14.817Z,58.00
2019-06-20T09:38:52.455Z,58.60
2019-06-20T09:41:26.846Z,57.20
2019-06-20T09:44:00.110Z,57.30
2019-06-20T09:46:34.464Z,60.00
2019-06-20T09:51:52.062Z,60.00
2019-06-20T09:54:27.045Z,58.10
2019-06-20T09:56:58.894Z,58.30
2019-06-20T09:59:34.125Z,60.00
2019-06-20T10:02:06.977Z,61.00
2019-06-20T10:04:46.105Z,59.00
2019-06-20T10:07:20.883Z,60.40
2019-06-20T10:09:56.330Z,59.30
2019-06-20T10:12:32.086Z,58.00
2019-06-20T10:15:02.480Z,56.40
2019-06-20T10:17:35.641Z,54.30
2019-06-20T10:20:11.026Z,50.70
2019-06-20T10:22:52.983Z,52.40
2019-06-20T10:25:28.500Z,54.40
2019-06-20T10:28:02.886Z,54.80
2019-06-20T10:31:12.012Z,52.80
2019-06-20T10:33:48.443Z,53.30
2019-06-20T10:36:20.603Z,53.00
2019-06-20T10:38:56.934Z,53.80
2019-06-20T10:41:43.544Z,50.80
2019-06-20T10:44:22.963Z,51.40
2019-06-20T10:47:03.471Z,48.90
2019-06-20T10:49:42.843Z,49.70
2019-06-20T10:52:15.066Z,50.40
2019-06-20T10:54:45.561Z,50.50
2019-06-20T10:57:17.735Z,50.00
2019-06-20T10:59:50.916Z,50.50
2019-06-20T11:02:26.511Z,49.80
2019-06-20T11:05:09.060Z,49.50
2019-06-20T11:07:43.811Z,49.40
2019-06-20T11:10:17.005Z,49.40
2019-06-20T11:12:56.183Z,49.00
2019-06-20T11:15:32.087Z,48.10
2019-06-20T11:18:07.372Z,47.60
2019-06-20T11:20:41.018Z,47.60
2019-06-20T11:23:15.215Z,45.30
2019-06-20T11:25:50.542Z,47.50
2019-06-20T11:28:24.694Z,48.30
2019-06-20T11:31:00.907Z,46.60
2019-06-20T11:33:36.499Z,45.80
2019-06-20T11:36:12.169Z,46.30
2019-06-20T11:39:03.142Z,46.30
2019-06-20T11:41:39.648Z,46.10
2019-06-20T11:44:18.782Z,46.70
2019-06-20T11:46:51.687Z,46.60
2019-06-20T11:50:04.609Z,45.80
2019-06-20T11:52:42.451Z,45.70
2019-06-20T11:55:19.806Z,45.70
2019-06-20T11:57:51.932Z,46.50
2019-06-20T12:00:26.896Z,46.50
2019-06-20T12:03:00.176Z,46.50
2019-06-20T12:05:34.736Z,45.40
2019-06-20T12:08:07.677Z,45.40
2019-06-20T12:10:38.072Z,44.80
2019-06-20T12:13:12.707Z,44.90
2019-06-20T12:15:44.457Z,44.60
2019-06-20T12:18:18.993Z,44.70
2019-06-20T12:20:50.818Z,44.60
2019-06-20T12:23:21.948Z,44.40
2019-06-20T12:25:59.569Z,45.00
2019-06-20T12:28:31.398Z,44.20
2019-06-20T12:31:18.935Z,44.10
2019-06-20T12:33:42.808Z,44.40
2019-06-20T12:36:14.088Z,48.20
2019-06-20T12:38:48.346Z,46.40
2019-06-20T12:41:24.266Z,47.00
2019-06-20T12:43:58.892Z,45.80
2019-06-20T12:46:31.883Z,45.50
2019-06-20T12:49:03.540Z,45.40
2019-06-20T12:51:42.424Z,45.80
2019-06-20T12:54:16.601Z,45.00
2019-06-20T12:56:50.942Z,45.30
2019-06-20T12:59:23.290Z,46.20
2019-06-20T13:02:02.614Z,45.70
2019-06-20T13:04:39.883Z,45.60
2019-06-20T13:07:12.174Z,44.70
2019-06-20T13:09:52.706Z,43.30
2019-06-20T13:12:30.000Z,42.30
2019-06-20T13:15:08.526Z,42.40
2019-06-20T13:17:42.009Z,41.60
2019-06-20T13:20:15.549Z,42.20
2019-06-20T13:22:54.910Z,42.40
2019-06-20T13:25:27.438Z,41.60
2019-06-20T13:28:02.766Z,42.80
2019-06-20T13:30:32.833Z,43.80
2019-06-20T13:33:04.245Z,42.80
2019-06-20T13:35:41.614Z,44.10
2019-06-20T13:38:18.858Z,45.10
2019-06-20T13:40:50.818Z,44.30
2019-06-20T13:43:25.245Z,44.40
2019-06-20T13:45:56.442Z,44.70
2019-06-20T13:48:28.795Z,44.80
2019-06-20T13:51:00.945Z,45.70
2019-06-20T13:53:35.142Z,45.80
2019-06-20T13:56:07.962Z,46.20
2019-06-20T13:58:40.495Z,46.90
2019-06-20T14:01:13.253Z,47.90
2019-06-20T14:03:48.756Z,48.80
2019-06-20T14:06:21.346Z,50.10
2019-06-20T14:08:51.699Z,50.90
2019-06-20T14:11:21.853Z,51.30
2019-06-20T14:14:04.102Z,51.10
2019-06-20T14:16:37.366Z,52.00
2019-06-20T14:19:11.884Z,53.40
2019-06-20T14:21:43.758Z,54.10
2019-06-20T14:24:17.197Z,55.70
2019-06-20T14:26:55.993Z,59.70
2019-06-20T14:29:26.903Z,63.40
2019-06-20T14:32:02.915Z,69.20
2019-06-20T14:34:34.869Z,73.70
2019-06-20T14:37:13.937Z,77.10
2019-06-20T14:40:00.507Z,84.40
2019-06-20T14:42:57.129Z,86.40
2019-06-20T14:45:10.875Z,90.30
2019-06-20T14:47:49.013Z,91.60
2019-06-20T14:50:26.997Z,93.10
2019-06-20T14:53:06.125Z,93.50
2019-06-20T14:55:37.969Z,94.90
2019-06-20T14:58:13.248Z,92.60
2019-06-20T15:00:46.987Z,90.30
2019-06-20T15:03:21.227Z,92.60
2019-06-20T15:05:55.906Z,94.40
2019-06-20T15:08:28.422Z,91.60
2019-06-20T15:11:07.313Z,90.80
2019-06-20T15:13:42.622Z,95.30
2019-06-20T15:16:12.782Z,95.80
2019-06-20T15:18:49.820Z,95.80
2019-06-20T15:21:21.843Z,92.40
2019-06-20T15:23:59.614Z,94.70
2019-06-20T15:26:34.410Z,95.20
2019-06-20T15:29:06.337Z,92.50
2019-06-20T15:31:43.637Z,89.40
2019-06-20T15:34:15.882Z,90.70
2019-06-20T15:36:55.116Z,91.10
2019-06-20T15:39:25.414Z,89.60
2019-06-20T15:42:00.002Z,91.10
2019-06-20T15:44:35.119Z,93.60
2019-06-20T15:47:14.564Z,88.20
2019-06-20T15:49:50.943Z,89.10
2019-06-20T15:52:23.287Z,90.50
2019-06-20T15:55:02.488Z,91.10
2019-06-20T15:57:36.861Z,92.00
2019-06-20T16:00:17.234Z,90.30
2019-06-20T16:02:48.825Z,87.10
2019-06-20T16:05:23.244Z,86.00
2019-06-20T16:07:56.062Z,84.50
2019-06-20T16:10:33.606Z,83.80
2019-06-20T16:13:10.388Z,81.70
2019-06-20T16:15:46.660Z,81.80
2019-06-20T16:18:15.545Z,80.90
2019-06-20T16:20:54.705Z,81.50
2019-06-20T16:23:47.532Z,81.90
2019-06-20T16:26:18.703Z,84.10
2019-06-20T16:28:55.356Z,82.80
2019-06-20T16:31:29.138Z,83.70
2019-06-20T16:34:02.415Z,84.20
2019-06-20T16:36:38.401Z,86.80
2019-06-20T16:39:13.315Z,87.80
2019-06-20T16:41:50.763Z,90.90
2019-06-20T16:44:26.516Z,91.70
2019-06-20T16:47:03.744Z,93.70
2019-06-20T16:49:41.064Z,93.90
2019-06-20T16:52:16.893Z,91.80
2019-06-20T16:54:49.230Z,90.90
2019-06-20T16:57:23.142Z,90.00
2019-06-20T17:00:05.903Z,89.80
2019-06-20T17:02:43.650Z,88.70
2019-06-20T17:05:19.326Z,87.90
2019-06-20T17:08:03.519Z,88.10
2019-06-20T17:10:34.993Z,87.40
2019-06-20T17:13:07.881Z,87.70
2019-06-20T17:15:42.176Z,86.90
2019-06-20T17:18:15.425Z,87.70
2019-06-20T17:20:58.876Z,87.40
2019-06-20T17:23:32.227Z,86.50
2019-06-20T17:26:11.964Z,85.00
2019-06-20T17:28:47.732Z,83.80
2019-06-20T17:31:34.456Z,82.40
2019-06-20T17:34:13.432Z,78.30
2019-06-20T17:36:45.609Z,77.90
2019-06-20T17:39:19.395Z,77.70
2019-06-20T17:42:00.065Z,77.60
2019-06-20T17:44:34.201Z,77.50
2019-06-20T17:47:12.683Z,75.80
2019-06-20T17:49:44.483Z,76.10
2019-06-20T17:52:34.547Z,74.20
2019-06-20T17:55:14.277Z,75.30
2019-06-20T17:57:49.366Z,75.30
2019-06-20T18:00:29.062Z,75.20
2019-06-20T18:03:03.779Z,74.60
2019-06-20T18:05:37.758Z,73.80
2019-06-20T18:08:15.647Z,72.90
2019-06-20T18:10:48.026Z,70.20
2019-06-20T18:13:25.498Z,69.40
2019-06-20T18:16:01.819Z,68.30
2019-06-20T18:18:36.961Z,67.60
2019-06-20T18:21:15.885Z,68.40
2019-06-20T18:23:49.376Z,68.90
2019-06-20T18:26:28.369Z,69.60
2019-06-20T18:29:02.070Z,70.90
2019-06-20T18:31:34.598Z,71.20
2019-06-20T18:34:07.004Z,72.80
2019-06-20T18:36:43.826Z,74.70
2019-06-20T18:39:15.863Z,77.20
2019-06-20T18:41:50.002Z,79.90
2019-06-20T18:44:26.634Z,82.10
2019-06-20T18:47:00.674Z,83.60
2019-06-20T18:49:41.484Z,85.30
2019-06-20T18:52:17.563Z,88.00
2019-06-20T18:54:56.796Z,90.30
2019-06-20T18:57:32.470Z,91.40
2019-06-20T19:00:30.529Z,94.10
2019-06-20T19:02:55.323Z,95.30
2019-06-20T19:05:26.955Z,96.50
2019-06-20T19:08:00.084Z,97.60
2019-06-20T19:10:42.503Z,99.70
2019-06-20T19:13:17.495Z,99.90
2019-06-20T19:15:50.800Z,99.90
2019-06-20T19:18:29.785Z,99.90
2019-06-20T19:21:04.272Z,99.90
2019-06-20T19:23:55.947Z,99.90
2019-06-20T19:26:32.109Z,99.90
2019-06-20T19:29:07.332Z,99.90
2019-06-20T19:31:38.415Z,99.90
2019-06-20T19:34:13.337Z,99.90
2019-06-20T19:36:53.287Z,99.90
2019-06-20T19:39:27.065Z,99.90
2019-06-20T19:42:02.039Z,99.90
2019-06-20T19:44:36.519Z,99.90
2019-06-20T19:47:08.377Z,99.90
2019-06-20T19:49:43.078Z,99.90
2019-06-20T19:52:13.933Z,99.90
2019-06-20T19:54:47.208Z,99.90
2019-06-20T19:57:27.761Z,99.90
2019-06-20T20:00:00.303Z,99.90
2019-06-20T20:02:39.183Z,99.90
2019-06-20T20:05:19.592Z,99.90
2019-06-20T20:07:50.880Z,99.90
2019-06-20T20:10:30.137Z,99.90
2019-06-20T20:13:04.054Z,99.90
2019-06-20T20:15:39.963Z,99.90
2019-06-20T20:18:14.949Z,99.90
2019-06-20T20:20:48.068Z,99.90
2019-06-20T20:23:23.338Z,99.90
2019-06-20T20:25:58.527Z,99.90
2019-06-20T20:28:52.752Z,99.90
2019-06-20T20:31:30.235Z,99.90
2019-06-20T20:34:05.415Z,99.90
2019-06-20T20:36:40.304Z,99.90
2019-06-20T20:39:16.844Z,99.90
2019-06-20T20:41:49.442Z,99.90
2019-06-20T20:44:26.524Z,99.90
2019-06-20T20:47:03.343Z,99.90
2019-06-20T20:49:39.172Z,99.90
2019-06-20T20:52:13.954Z,99.90
2019-06-20T20:54:50.166Z,99.90
2019-06-20T20:57:23.078Z,99.90
2019-06-20T20:59:58.780Z,99.90
2019-06-20T21:02:36.576Z,99.90
2019-06-20T21:05:09.964Z,99.90
2019-06-20T21:07:46.236Z,99.90
2019-06-20T21:10:19.410Z,99.90
2019-06-20T21:12:52.511Z,99.90
2019-06-20T21:15:26.248Z,99.90
2019-06-20T21:18:07.784Z,99.90
2019-06-20T21:20:40.634Z,99.90
2019-06-20T21:23:17.460Z,99.90
2019-06-20T21:25:51.605Z,99.90
2019-06-20T21:28:32.062Z,99.90
2019-06-20T21:31:06.568Z,99.90
2019-06-20T21:33:41.028Z,99.90
2019-06-20T21:36:18.272Z,99.90
2019-06-20T21:39:03.573Z,99.90
2019-06-20T21:41:35.668Z,99.90
2019-06-20T21:44:06.963Z,99.90
2019-06-20T21:46:39.242Z,99.90
2019-06-20T21:49:18.744Z,99.90
2019-06-20T21:51:52.961Z,99.90
2019-06-20T21:54:33.492Z,99.90
2019-06-20T21:57:11.106Z,99.90
2019-06-20T21:59:54.670Z,99.90
2019-06-20T22:02:45.396Z,99.90
2019-06-20T22:05:22.150Z,99.90
2019-06-20T22:07:55.657Z,99.90
2019-06-20T22:10:32.738Z,99.90
2019-06-20T22:13:02.856Z,99.90
2019-06-20T22:15:34.464Z,99.90
2019-06-20T22:18:10.973Z,99.90
2019-06-20T22:20:48.204Z,99.90
2019-06-20T22:23:20.703Z,99.90
2019-06-20T22:25:51.911Z,99.90
2019-06-20T22:28:40.745Z,99.90
2019-06-20T22:31:19.468Z,99.90
2019-06-20T22:33:54.585Z,99.90
2019-06-20T22:36:39.685Z,99.90
2019-06-20T22:39:04.693Z,99.90
2019-06-20T22:41:40.900Z,99.90
2019-06-20T22:44:34.427Z,99.90
2019-06-20T22:47:08.373Z,99.90
2019-06-20T22:49:45.558Z,99.90
2019-06-20T22:55:14.613Z,99.90
2019-06-20T22:57:47.912Z,99.90
2019-06-20T23:00:29.590Z,99.90
2019-06-20T23:03:07.537Z,99.90
2019-06-20T23:05:43.353Z,99.90
2019-06-20T23:08:16.501Z,99.90
2019-06-20T23:10:48.994Z,99.90
2019-06-20T23:13:31.892Z,99.90
2019-06-20T23:16:03.305Z,99.90
2019-06-20T23:18:40.577Z,99.90
2019-06-20T23:21:32.591Z,99.90
2019-06-20T23:24:09.086Z,99.90
2019-06-20T23:26:40.056Z,99.90
2019-06-20T23:29:25.507Z,99.90
2019-06-20T23:31:56.446Z,99.90
2019-06-20T23:34:26.649Z,99.90
2019-06-20T23:37:11.757Z,99.90
2019-06-20T23:39:29.341Z,99.90
2019-06-20T23:41:59.867Z,99.90
2019-06-20T23:44:30.277Z,99.90
2019-06-20T23:47:02.499Z,99.90
2019-06-20T23:49:41.385Z,99.90
2019-06-20T23:52:16.139Z,99.90
2019-06-20T23:54:46.861Z,99.90
2019-06-20T23:57:17.453Z,99.90
2019-06-20T23:59:57.428Z,99.90
